Time;durP1;ratioP1;P1;durP2;ratioP2;P2;SDS_P1;SDS_P2;PMS_P1;PMS_P2;Temp;Humidity;BMP_temperature;BMP_pressure;BME280_temperature;BME280_humidity;BME280_pressure;Samples;Min_cycle;Max_cycle;Signal;HPM_P1;HPM_P2
2023/06/07 00:00:06;;;;;;;5.07;2.63;;;13.60;1.00;;;;;;5033221;28;20508;-81
2023/06/07 00:02:38;;;;;;;4.75;2.40;;;13.50;1.00;;;;;;5056912;28;20032;-81
2023/06/07 00:05:05;;;;;;;5.80;2.70;;;13.30;1.00;;;;;;5052055;28;20041;-80
2023/06/07 00:07:32;;;;;;;3.25;2.45;;;13.30;1.00;;;;;;5048931;28;20041;-80
2023/06/07 00:10:01;;;;;;;4.70;2.85;;;13.20;1.00;;;;;;5052428;28;20033;-80
2023/06/07 00:12:27;;;;;;;5.32;3.20;;;13.20;1.00;;;;;;5047073;28;20037;-80
2023/06/07 00:14:54;;;;;;;4.60;2.75;;;13.10;1.00;;;;;;5052038;28;20033;-80
2023/06/07 00:17:20;;;;;;;5.15;2.97;;;13.20;1.00;;;;;;5055317;28;20041;-80
2023/06/07 00:19:47;;;;;;;4.25;3.30;;;13.20;1.00;;;;;;5051978;28;20029;-80
2023/06/07 00:22:13;;;;;;;4.97;3.10;;;13.20;1.00;;;;;;5048877;28;20048;-81
2023/06/07 00:24:40;;;;;;;3.60;2.65;;;13.10;1.00;;;;;;5051303;28;20385;-80
2023/06/07 00:27:06;;;;;;;4.82;2.97;;;13.10;1.00;;;;;;5051551;28;20028;-80
2023/06/07 00:29:32;;;;;;;4.78;2.30;;;13.00;1.00;;;;;;5050957;28;20544;-80
2023/06/07 00:31:59;;;;;;;3.83;2.90;;;13.00;1.00;;;;;;5050842;28;20048;-79
2023/06/07 00:34:25;;;;;;;5.07;2.65;;;13.10;1.00;;;;;;5051080;28;20040;-79
2023/06/07 00:36:51;;;;;;;4.60;3.33;;;13.10;1.00;;;;;;5051868;28;20075;-79
2023/06/07 00:39:17;;;;;;;3.75;2.72;;;13.10;1.00;;;;;;5051817;28;20029;-78
2023/06/07 00:41:43;;;;;;;3.50;2.90;;;13.00;1.00;;;;;;5050828;28;20032;-80
2023/06/07 00:44:13;;;;;;;5.97;3.55;;;12.90;1.00;;;;;;5049215;28;20056;-80
2023/06/07 00:46:39;;;;;;;3.83;2.78;;;12.80;1.00;;;;;;5033043;28;20277;-80
2023/06/07 00:49:05;;;;;;;3.40;2.50;;;12.70;1.00;;;;;;5051895;28;20378;-80
2023/06/07 00:51:32;;;;;;;6.03;3.35;;;12.60;1.00;;;;;;5049915;28;20035;-80
2023/06/07 00:54:02;;;;;;;5.10;3.28;;;12.50;1.00;;;;;;5050378;28;20047;-80
2023/06/07 00:56:29;;;;;;;4.75;3.90;;;12.70;1.00;;;;;;5051282;28;20442;-80
2023/06/07 00:58:56;;;;;;;4.65;3.00;;;12.70;1.00;;;;;;5047092;28;20037;-81
2023/06/07 01:01:22;;;;;;;5.13;2.92;;;12.70;1.00;;;;;;5051682;28;20037;-80
2023/06/07 01:03:53;;;;;;;3.92;3.13;;;12.60;1.00;;;;;;5049943;28;20063;-80
2023/06/07 01:06:22;;;;;;;6.00;2.72;;;12.50;2.60;;;;;;5051676;28;20037;-81
2023/06/07 01:08:51;;;;;;;3.53;3.08;;;12.50;12.10;;;;;;5051547;28;20501;-80
2023/06/07 01:11:20;;;;;;;6.53;3.10;;;12.50;9.50;;;;;;5051437;28;20481;-81
2023/06/07 01:13:47;;;;;;;4.40;3.33;;;12.50;12.10;;;;;;5050198;28;20392;-81
2023/06/07 01:16:13;;;;;;;4.18;3.03;;;12.50;11.20;;;;;;5048614;28;20041;-81
2023/06/07 01:18:42;;;;;;;4.53;3.53;;;12.50;12.30;;;;;;5048792;28;20041;-80
2023/06/07 01:21:15;;;;;;;3.33;2.50;;;12.40;18.60;;;;;;5055529;28;20033;-81
2023/06/07 01:23:41;;;;;;;3.70;3.08;;;12.40;17.80;;;;;;5053521;28;20052;-80
2023/06/07 01:26:08;;;;;;;6.07;2.83;;;12.40;23.10;;;;;;5055375;28;20037;-80
2023/06/07 01:28:34;;;;;;;3.33;2.65;;;12.50;27.80;;;;;;5054678;28;20024;-80
2023/06/07 01:31:01;;;;;;;3.80;2.85;;;12.60;18.90;;;;;;5055393;28;20393;-80
2023/06/07 01:33:29;;;;;;;5.78;2.97;;;12.60;14.00;;;;;;5053410;28;20041;-80
2023/06/07 01:35:57;;;;;;;3.88;2.88;;;12.50;13.70;;;;;;5051210;28;20037;-80
2023/06/07 01:38:27;;;;;;;4.85;2.95;;;12.40;20.70;;;;;;5050197;28;20071;-80
2023/06/07 01:40:54;;;;;;;7.18;2.88;;;12.40;23.10;;;;;;5055066;28;20033;-81
2023/06/07 01:43:21;;;;;;;4.82;3.50;;;12.40;23.20;;;;;;5053432;28;20033;-81
2023/06/07 01:45:48;;;;;;;5.10;3.25;;;12.30;27.20;;;;;;5053433;28;20049;-80
2023/06/07 01:48:16;;;;;;;4.22;2.97;;;12.30;27.00;;;;;;5054966;28;20054;-80
2023/06/07 01:50:42;;;;;;;4.95;3.60;;;12.40;28.20;;;;;;5052794;28;20458;-81
2023/06/07 01:53:08;;;;;;;4.22;3.25;;;12.40;26.40;;;;;;5067097;28;20045;-81
2023/06/07 01:55:35;;;;;;;5.38;3.17;;;12.20;27.20;;;;;;5054447;28;20048;-80
2023/06/07 01:58:30;;;;;;;5.53;3.60;;;12.20;40.00;;;;;;5067852;28;20108;-80
2023/06/07 02:01:18;;;;;;;4.95;3.25;;;12.20;43.20;;;;;;5048576;28;20041;-80
2023/06/07 02:03:51;;;;;;;3.58;2.67;;;12.20;32.20;;;;;;5052518;28;20048;-81
2023/06/07 02:06:27;;;;;;;3.80;3.03;;;12.00;42.60;;;;;;5040496;28;20049;-80
2023/06/07 02:08:56;;;;;;;3.33;3.00;;;11.80;59.20;;;;;;5051539;28;20032;-81
2023/06/07 02:11:24;;;;;;;3.40;3.10;;;11.80;68.00;;;;;;5054598;28;20028;-81
2023/06/07 02:13:50;;;;;;;5.18;3.45;;;11.80;87.20;;;;;;5049172;28;20052;-81
2023/06/07 02:16:17;;;;;;;6.05;3.47;;;11.80;83.20;;;;;;5054451;28;20037;-81
2023/06/07 02:18:44;;;;;;;4.88;3.42;;;11.80;84.50;;;;;;5031844;28;20033;-81
2023/06/07 02:21:10;;;;;;;5.13;3.42;;;11.80;83.50;;;;;;5036524;28;20036;-80
2023/06/07 02:23:37;;;;;;;4.90;3.47;;;11.70;85.50;;;;;;5052421;28;20489;-81
2023/06/07 02:26:04;;;;;;;6.45;3.78;;;11.70;93.00;;;;;;5054364;28;20044;-80
2023/06/07 02:28:30;;;;;;;5.50;3.92;;;11.60;92.90;;;;;;5053685;28;20037;-79
2023/06/07 02:30:57;;;;;;;4.13;3.72;;;11.50;96.90;;;;;;5051751;28;20036;-80
2023/06/07 02:33:25;;;;;;;5.00;3.75;;;11.50;99.90;;;;;;5053390;28;20484;-79
2023/06/07 02:35:51;;;;;;;5.70;3.58;;;11.50;99.90;;;;;;5054805;28;20029;-79
2023/06/07 02:38:17;;;;;;;5.80;4.05;;;11.30;99.90;;;;;;5054726;28;20033;-79
2023/06/07 02:40:43;;;;;;;4.97;3.35;;;11.20;99.90;;;;;;5036139;28;20052;-80
2023/06/07 02:43:10;;;;;;;5.95;3.80;;;11.20;99.90;;;;;;5051905;28;20021;-80
2023/06/07 02:45:36;;;;;;;5.40;3.92;;;11.30;99.90;;;;;;5053944;28;20033;-80
2023/06/07 02:48:06;;;;;;;5.05;3.60;;;11.20;99.90;;;;;;5055201;28;20037;-79
2023/06/07 02:50:32;;;;;;;6.22;3.92;;;11.30;99.90;;;;;;5049974;28;20052;-79
2023/06/07 02:52:59;;;;;;;5.72;3.63;;;11.30;99.90;;;;;;5052499;28;20052;-80
2023/06/07 02:55:26;;;;;;;4.65;3.25;;;11.40;99.90;;;;;;5053390;28;20041;-79
2023/06/07 02:57:52;;;;;;;4.65;3.53;;;11.30;99.90;;;;;;5050700;28;20041;-80
2023/06/07 03:00:23;;;;;;;6.53;3.63;;;11.30;99.90;;;;;;5051652;28;20041;-79
2023/06/07 03:02:58;;;;;;;5.90;4.22;;;11.30;99.90;;;;;;5054026;28;20049;-80
2023/06/07 03:05:26;;;;;;;5.82;4.30;;;11.30;99.90;;;;;;5051779;28;20069;-80
2023/06/07 03:07:56;;;;;;;5.80;4.30;;;11.30;99.90;;;;;;5049155;28;20055;-80
2023/06/07 03:10:23;;;;;;;5.70;3.97;;;11.20;99.90;;;;;;5049579;28;20041;-81
2023/06/07 03:12:49;;;;;;;4.80;3.92;;;11.10;99.90;;;;;;5033864;28;20473;-79
2023/06/07 03:15:15;;;;;;;5.68;4.32;;;11.00;99.90;;;;;;5052332;28;20417;-79
2023/06/07 03:17:44;;;;;;;5.32;3.33;;;11.00;99.90;;;;;;5048974;28;20041;-79
2023/06/07 03:20:11;;;;;;;5.40;4.25;;;10.80;99.90;;;;;;5036005;28;20105;-80
2023/06/07 03:22:40;;;;;;;6.15;3.92;;;11.00;99.90;;;;;;5043245;28;20044;-79
2023/06/07 03:25:09;;;;;;;4.60;3.78;;;11.10;99.90;;;;;;5049767;28;20053;-79
2023/06/07 03:27:36;;;;;;;4.47;3.85;;;11.10;99.90;;;;;;5050158;28;20457;-78
2023/06/07 03:30:12;;;;;;;6.82;3.83;;;11.10;99.90;;;;;;5041673;28;20040;-80
2023/06/07 03:32:43;;;;;;;6.55;4.30;;;11.30;99.90;;;;;;5050115;28;20040;-80
2023/06/07 03:35:09;;;;;;;7.13;4.00;;;11.50;99.90;;;;;;5051779;28;20045;-79
2023/06/07 03:37:36;;;;;;;7.63;4.10;;;11.50;99.90;;;;;;5034150;28;20489;-79
2023/06/07 03:40:03;;;;;;;4.95;4.13;;;11.50;99.90;;;;;;5052932;28;20029;-79
2023/06/07 03:42:30;;;;;;;4.65;3.85;;;11.40;99.90;;;;;;5049020;28;20044;-80
2023/06/07 03:44:56;;;;;;;6.03;3.95;;;11.30;99.90;;;;;;5049253;28;20060;-81
2023/06/07 03:47:23;;;;;;;8.60;4.13;;;11.20;99.90;;;;;;5048040;28;20045;-79
2023/06/07 03:49:50;;;;;;;5.43;4.28;;;11.00;99.90;;;;;;5033534;28;20409;-79
2023/06/07 03:52:16;;;;;;;5.97;4.18;;;11.10;99.90;;;;;;5051283;28;20355;-79
2023/06/07 03:54:42;;;;;;;5.70;4.07;;;11.10;99.90;;;;;;5050862;28;20037;-80
2023/06/07 03:57:08;;;;;;;6.13;4.15;;;11.10;99.90;;;;;;5053070;28;20029;-80
2023/06/07 03:59:40;;;;;;;;;;;11.10;99.90;;;;;;5034772;28;20045;-80
2023/06/07 04:02:07;;;;;;;5.15;3.85;;;11.20;99.90;;;;;;5048073;28;19916;-79
2023/06/07 04:04:33;;;;;;;7.28;4.25;;;11.30;99.90;;;;;;5048124;28;20394;-79
2023/06/07 04:07:03;;;;;;;6.50;4.47;;;11.40;99.90;;;;;;5034328;28;20045;-80
2023/06/07 04:09:30;;;;;;;7.35;4.03;;;11.50;99.90;;;;;;5050871;28;20044;-80
2023/06/07 04:11:56;;;;;;;6.72;4.15;;;11.60;99.90;;;;;;5051444;28;20025;-81
2023/06/07 04:14:23;;;;;;;7.65;4.53;;;11.70;99.90;;;;;;5047969;28;20394;-80
2023/06/07 04:16:49;;;;;;;6.50;3.92;;;11.80;99.90;;;;;;5057085;28;20050;-80
2023/06/07 04:19:16;;;;;;;7.88;4.65;;;12.00;99.90;;;;;;5067745;28;20041;-81
2023/06/07 04:21:44;;;;;;;6.97;4.32;;;12.10;99.90;;;;;;5045771;28;20100;-79
2023/06/07 04:24:10;;;;;;;8.35;4.18;;;12.10;94.90;;;;;;5042389;28;20080;-79
2023/06/07 04:26:37;;;;;;;6.85;4.72;;;12.20;92.50;;;;;;5047843;28;20048;-79
2023/06/07 04:29:05;;;;;;;5.90;3.88;;;12.10;90.30;;;;;;5049060;28;20041;-79
2023/06/07 04:31:39;;;;;;;8.07;4.53;;;12.20;91.60;;;;;;5053674;28;20041;-78
2023/06/07 04:34:06;;;;;;;;;;;12.30;91.60;;;;;;5034958;28;20470;-80
2023/06/07 04:36:37;;;;;;;5.63;3.83;;;12.30;87.80;;;;;;5048383;28;19921;-79
2023/06/07 04:39:09;;;;;;;4.68;3.50;;;12.20;92.60;;;;;;5045053;28;20052;-79
2023/06/07 04:41:36;;;;;;;4.97;3.53;;;12.30;94.80;;;;;;5048412;28;20028;-79
2023/06/07 04:44:04;;;;;;;6.10;3.63;;;12.40;93.50;;;;;;5043628;28;20070;-79
2023/06/07 04:46:39;;;;;;;5.80;4.18;;;12.60;89.80;;;;;;5049391;28;20047;-79
2023/06/07 04:49:06;;;;;;;7.47;4.53;;;12.60;81.30;;;;;;5050696;28;20048;-79
2023/06/07 04:51:32;;;;;;;11.13;4.78;;;12.70;78.50;;;;;;5050303;28;20033;-80
2023/06/07 04:54:01;;;;;;;6.05;4.20;;;12.80;77.70;;;;;;5049496;28;20048;-80
2023/06/07 04:56:30;;;;;;;7.57;4.45;;;12.80;82.40;;;;;;5052696;28;20044;-79
2023/06/07 04:59:00;;;;;;;8.35;4.88;;;12.90;88.00;;;;;;5047209;28;20393;-79
2023/06/07 05:01:32;;;;;;;7.70;4.63;;;13.10;79.20;;;;;;5064830;28;20041;-79
2023/06/07 05:04:02;;;;;;;7.50;5.55;;;13.30;74.70;;;;;;5047377;28;20049;-79
2023/06/07 05:06:37;;;;;;;5.68;4.60;;;13.40;70.50;;;;;;5066738;28;20056;-80
2023/06/07 05:09:05;;;;;;;7.63;4.97;;;13.80;45.30;;;;;;5050405;28;20052;-80
2023/06/07 05:11:33;;;;;;;5.03;3.65;;;13.90;1.00;;;;;;5050013;28;20037;-80
2023/06/07 05:14:00;;;;;;;9.75;4.07;;;13.90;1.80;;;;;;5051106;28;20052;-79
2023/06/07 05:16:27;;;;;;;6.80;3.90;;;14.00;1.00;;;;;;5051063;28;20393;-80
2023/06/07 05:18:56;;;;;;;7.82;3.88;;;14.40;1.00;;;;;;5048147;28;20046;-79
2023/06/07 05:21:23;;;;;;;8.43;3.92;;;14.90;1.00;;;;;;5048912;28;20041;-79
2023/06/07 05:23:49;;;;;;;7.28;4.07;;;15.20;1.00;;;;;;5051048;28;20469;-80
2023/06/07 05:26:16;;;;;;;7.03;3.88;;;15.20;1.00;;;;;;5048837;28;20053;-79
2023/06/07 05:28:43;;;;;;;5.68;3.63;;;15.40;1.00;;;;;;5047257;28;20471;-79
2023/06/07 05:31:11;;;;;;;6.80;3.50;;;15.80;1.00;;;;;;5048407;28;20045;-81
2023/06/07 05:33:38;;;;;;;6.32;3.20;;;16.10;1.00;;;;;;5047341;28;20055;-81
2023/06/07 05:36:05;;;;;;;5.32;3.20;;;16.30;1.00;;;;;;5041094;28;20044;-81
2023/06/07 05:38:33;;;;;;;5.20;3.45;;;16.40;1.00;;;;;;5049257;28;20494;-79
2023/06/07 05:40:59;;;;;;;5.82;3.40;;;16.40;1.00;;;;;;5050257;28;20053;-80
2023/06/07 05:43:26;;;;;;;7.22;3.67;;;16.70;1.00;;;;;;5048930;28;20036;-81
2023/06/07 05:45:52;;;;;;;6.93;3.13;;;17.40;1.00;;;;;;5033309;28;20045;-81
2023/06/07 05:48:18;;;;;;;8.98;3.50;;;18.10;99.90;;;;;;5033243;28;20048;-81
2023/06/07 05:50:45;;;;;;;4.28;2.88;;;18.00;99.90;;;;;;5045792;28;20411;-80
2023/06/07 05:53:12;;;;;;;4.03;2.60;;;18.20;99.90;;;;;;5049932;28;20032;-81
2023/06/07 05:55:38;;;;;;;4.07;2.78;;;18.40;99.90;;;;;;5049525;28;20045;-79
2023/06/07 05:58:07;;;;;;;6.22;3.05;;;19.10;99.90;;;;;;5047767;28;20040;-79
2023/06/07 06:00:33;;;;;;;5.40;3.13;;;19.70;99.90;;;;;;5049452;28;20401;-78
2023/06/07 06:03:01;;;;;;;4.72;3.20;;;19.40;99.90;;;;;;5049573;28;20048;-79
2023/06/07 06:05:27;;;;;;;6.75;3.25;;;19.20;99.90;;;;;;5053201;28;20048;-80
2023/06/07 06:07:55;;;;;;;7.65;3.78;;;19.00;99.90;;;;;;5052755;28;20025;-79
2023/06/07 06:10:22;;;;;;;3.20;2.83;;;19.10;99.90;;;;;;5054754;28;20490;-79
2023/06/07 06:12:48;;;;;;;4.43;2.47;;;19.20;99.90;;;;;;5050651;28;20048;-79
2023/06/07 06:15:14;;;;;;;4.00;2.50;;;19.70;99.90;;;;;;5054628;28;20044;-79
2023/06/07 06:17:40;;;;;;;6.15;3.03;;;20.40;99.90;;;;;;5054113;28;20060;-79
2023/06/07 06:20:08;;;;;;;5.25;2.60;;;20.70;99.90;;;;;;5053720;28;20371;-79
2023/06/07 06:22:34;;;;;;;5.40;2.95;;;21.00;99.90;;;;;;5052734;28;20378;-73
2023/06/07 06:25:00;;;;;;;4.25;1.90;;;21.60;99.90;;;;;;5054523;28;20033;-78
2023/06/07 06:27:26;;;;;;;4.72;2.35;;;21.50;99.90;;;;;;5054446;28;20466;-79
2023/06/07 06:29:53;;;;;;;5.82;2.17;;;21.20;99.90;;;;;;5053435;28;20501;-80
2023/06/07 06:32:19;;;;;;;4.72;2.58;;;21.00;99.90;;;;;;5053243;28;20036;-79
2023/06/07 06:34:45;;;;;;;6.93;2.35;;;20.80;99.90;;;;;;5058594;28;20033;-79
2023/06/07 06:37:11;;;;;;;4.85;2.05;;;21.20;99.90;;;;;;5055389;28;20053;-80
2023/06/07 06:39:37;;;;;;;6.47;2.58;;;21.70;99.90;;;;;;5055580;28;20040;-80
2023/06/07 06:42:04;;;;;;;4.93;1.85;;;22.40;99.90;;;;;;5051723;28;20056;-80
2023/06/07 06:44:50;;;;;;;5.50;1.90;;;21.90;99.90;;;;;;5048544;28;20045;-80
2023/06/07 06:47:17;;;;;;;2.33;1.75;;;22.10;99.90;;;;;;5053890;28;20033;-80
2023/06/07 06:49:43;;;;;;;5.15;2.22;;;21.80;99.90;;;;;;5052438;28;20040;-79
2023/06/07 06:52:10;;;;;;;3.35;1.85;;;21.50;99.90;;;;;;5065612;28;20048;-78
2023/06/07 06:54:36;;;;;;;6.80;2.25;;;22.20;99.90;;;;;;5054294;28;20033;-80
2023/06/07 06:57:02;;;;;;;2.53;1.77;;;22.20;99.90;;;;;;5049772;28;20038;-82
2023/06/07 06:59:28;;;;;;;4.63;2.20;;;21.60;99.90;;;;;;5052679;28;20374;-76
2023/06/07 07:01:56;;;;;;;3.33;1.88;;;22.00;99.90;;;;;;5051114;28;20389;-75
2023/06/07 07:04:25;;;;;;;2.80;2.03;;;22.60;99.90;;;;;;5053063;28;20028;-81
2023/06/07 07:06:51;;;;;;;7.60;2.40;;;22.00;99.90;;;;;;5050031;28;20040;-82
2023/06/07 07:09:17;;;;;;;2.90;1.60;;;21.60;99.90;;;;;;5054459;28;20037;-82
2023/06/07 07:11:43;;;;;;;3.33;1.90;;;21.80;99.90;;;;;;5049136;28;20029;-80
2023/06/07 07:14:09;;;;;;;3.80;1.63;;;22.10;99.90;;;;;;5052100;28;20056;-78
2023/06/07 07:16:36;;;;;;;2.75;1.85;;;22.30;99.90;;;;;;5051240;28;20424;-79
2023/06/07 07:19:02;;;;;;;3.63;1.92;;;22.80;99.90;;;;;;5054203;28;20052;-79
2023/06/07 07:21:28;;;;;;;3.70;2.33;;;23.00;99.90;;;;;;5051568;28;20484;-81
2023/06/07 07:23:55;;;;;;;3.80;2.05;;;23.50;99.90;;;;;;5052224;28;20033;-81
2023/06/07 07:26:21;;;;;;;4.40;2.38;;;22.10;99.90;;;;;;5052212;28;20533;-81
2023/06/07 07:28:48;;;;;;;2.95;2.10;;;22.50;99.90;;;;;;5053401;28;20033;-79
2023/06/07 07:31:14;;;;;;;6.10;2.20;;;23.50;99.90;;;;;;5052977;28;20415;-81
2023/06/07 07:33:41;;;;;;;2.80;2.28;;;24.30;99.90;;;;;;5060260;28;20037;-80
2023/06/07 07:36:08;;;;;;;3.40;2.10;;;23.90;99.90;;;;;;5056541;28;20045;-82
2023/06/07 07:38:37;;;;;;;5.40;2.50;;;22.40;99.90;;;;;;5034457;28;20048;-79
2023/06/07 07:41:05;;;;;;;2.22;1.88;;;22.20;99.90;;;;;;5053326;28;20037;-80
2023/06/07 07:43:32;;;;;;;4.40;2.20;;;22.10;99.90;;;;;;5051705;28;20032;-81
2023/06/07 07:45:58;;;;;;;3.40;2.10;;;21.80;99.90;;;;;;5033264;28;20057;-84
2023/06/07 07:48:24;;;;;;;4.50;2.53;;;21.80;99.90;;;;;;5052535;28;20041;-83
2023/06/07 07:50:50;;;;;;;4.60;2.30;;;22.00;99.90;;;;;;5052444;28;20044;-83
2023/06/07 07:53:18;;;;;;;3.10;2.28;;;21.70;99.90;;;;;;5052620;28;20037;-84
2023/06/07 07:55:44;;;;;;;4.32;2.63;;;21.40;99.90;;;;;;5052298;28;20398;-84
2023/06/07 07:58:10;;;;;;;4.88;2.72;;;21.90;99.90;;;;;;5052961;28;20037;-85
2023/06/07 08:00:37;;;;;;;4.93;2.83;;;21.90;99.90;;;;;;5051991;28;20492;-83
2023/06/07 08:03:03;;;;;;;4.55;2.88;;;21.80;99.90;;;;;;5048686;28;20099;-83
2023/06/07 08:05:30;;;;;;;2.72;1.88;;;22.50;99.90;;;;;;5023997;28;20054;-83
2023/06/07 08:07:57;;;;;;;4.70;3.13;;;22.90;99.90;;;;;;5050503;28;20474;-81
2023/06/07 08:10:24;;;;;;;4.35;2.22;;;22.20;99.90;;;;;;5051189;28;20037;-81
2023/06/07 08:12:51;;;;;;;3.92;2.30;;;21.30;99.90;;;;;;5052841;28;20035;-79
2023/06/07 08:15:17;;;;;;;4.32;3.00;;;21.30;99.90;;;;;;5055584;28;20044;-83
2023/06/07 08:17:43;;;;;;;3.78;2.20;;;21.70;99.90;;;;;;5060545;28;20032;-82
2023/06/07 08:20:10;;;;;;;5.20;2.30;;;22.00;99.90;;;;;;5044024;28;20049;-82
2023/06/07 08:22:40;;;;;;;5.45;3.05;;;21.80;99.90;;;;;;5051108;28;20048;-81
2023/06/07 08:25:08;;;;;;;;;;;21.60;99.90;;;;;;5049533;28;20053;-81
2023/06/07 08:27:35;;;;;;;3.65;2.53;;;21.30;99.90;;;;;;5055377;28;20250;-79
2023/06/07 08:30:02;;;;;;;7.85;2.53;;;21.20;99.90;;;;;;5050159;28;20492;-78
2023/06/07 08:32:28;;;;;;;5.90;3.55;;;21.30;99.90;;;;;;5056675;28;20033;-79
2023/06/07 08:34:55;;;;;;;5.18;3.40;;;21.30;99.90;;;;;;5049890;28;20041;-80
2023/06/07 08:37:21;;;;;;;10.00;3.53;;;21.00;99.90;;;;;;5045188;28;20057;-77
2023/06/07 08:39:48;;;;;;;5.07;3.72;;;20.80;99.90;;;;;;5034278;28;20369;-79
2023/06/07 08:42:14;;;;;;;4.05;3.42;;;20.90;99.90;;;;;;5050531;28;20025;-77
2023/06/07 08:44:40;;;;;;;7.40;2.70;;;21.10;99.90;;;;;;5051565;28;20032;-78
2023/06/07 08:47:08;;;;;;;9.50;3.35;;;21.80;99.90;;;;;;5051341;28;20041;-78
2023/06/07 08:49:34;;;;;;;5.65;3.70;;;22.10;99.90;;;;;;5051424;28;20033;-78
2023/06/07 08:52:02;;;;;;;5.45;2.50;;;21.80;99.90;;;;;;5049430;28;20228;-78
2023/06/07 08:54:31;;;;;;;9.15;2.88;;;21.80;99.90;;;;;;5051064;28;20028;-79
2023/06/07 08:56:58;;;;;;;24.88;4.10;;;21.40;99.90;;;;;;5030102;28;20049;-77
2023/06/07 08:59:24;;;;;;;5.97;3.53;;;21.20;99.90;;;;;;5050518;28;20041;-80
2023/06/07 09:01:52;;;;;;;4.47;3.38;;;21.20;99.90;;;;;;5024449;28;20034;-77
2023/06/07 09:04:18;;;;;;;6.28;4.10;;;21.30;99.90;;;;;;5051549;28;20025;-78
2023/06/07 09:06:45;;;;;;;4.07;3.40;;;21.50;99.90;;;;;;5047053;28;20040;-79
2023/06/07 09:09:11;;;;;;;5.28;3.80;;;21.60;99.90;;;;;;5049849;28;20472;-80
2023/06/07 09:11:38;;;;;;;4.28;3.35;;;21.80;99.90;;;;;;5054099;28;20048;-81
2023/06/07 09:14:05;;;;;;;4.70;3.35;;;22.20;99.90;;;;;;5047927;28;20032;-79
2023/06/07 09:16:31;;;;;;;3.60;3.05;;;22.60;99.90;;;;;;5049849;28;20041;-75
2023/06/07 09:18:57;;;;;;;3.47;3.03;;;23.20;99.90;;;;;;5040506;28;20029;-76
2023/06/07 09:21:28;;;;;;;4.13;3.30;;;23.20;99.90;;;;;;5047769;28;20033;-77
2023/06/07 09:23:58;;;;;;;3.90;3.05;;;22.50;99.90;;;;;;5052624;28;20048;-77
2023/06/07 09:26:38;;;;;;;3.92;3.40;;;22.40;99.90;;;;;;5051607;28;20037;-79
2023/06/07 09:29:14;;;;;;;4.50;2.92;;;22.40;99.90;;;;;;5051198;28;20044;-80
2023/06/07 09:31:41;;;;;;;3.25;2.92;;;22.20;99.90;;;;;;5046894;28;20033;-80
2023/06/07 09:34:27;;;;;;;2.80;2.50;;;22.10;99.90;;;;;;5047201;28;20025;-79
2023/06/07 09:36:57;;;;;;;3.85;2.13;;;22.20;99.90;;;;;;5049488;28;20049;-81
2023/06/07 09:39:28;;;;;;;3.63;2.10;;;22.20;99.90;;;;;;5048867;28;20052;-79
2023/06/07 09:41:56;;;;;;;2.63;1.95;;;22.20;99.90;;;;;;5055200;28;20084;-80
2023/06/07 09:44:28;;;;;;;2.47;2.00;;;22.40;99.90;;;;;;5051069;28;20506;-80
2023/06/07 09:46:56;;;;;;;2.90;2.30;;;22.40;99.90;;;;;;5052350;28;20065;-76
2023/06/07 09:49:35;;;;;;;4.95;2.78;;;22.50;99.90;;;;;;5052362;28;20021;-80
2023/06/07 09:52:02;;;;;;;3.65;2.30;;;22.90;99.90;;;;;;5068925;28;20033;-79
2023/06/07 09:54:37;;;;;;;2.95;2.38;;;23.40;99.90;;;;;;5051248;28;20044;-79
2023/06/07 09:57:07;;;;;;;2.72;2.20;;;24.00;99.90;;;;;;5054106;28;20037;-80
2023/06/07 09:59:33;;;;;;;3.60;2.67;;;24.50;99.90;;;;;;5054823;28;20434;-79
2023/06/07 10:01:59;;;;;;;2.45;2.03;;;24.40;99.90;;;;;;5049054;28;20052;-79
2023/06/07 10:04:26;;;;;;;2.22;1.95;;;24.30;99.90;;;;;;5053404;28;20074;-78
2023/06/07 10:06:57;;;;;;;2.58;2.22;;;24.80;99.90;;;;;;5052572;28;20057;-81
2023/06/07 10:09:26;;;;;;;3.50;2.13;;;24.30;99.90;;;;;;5054822;28;20029;-77
2023/06/07 10:11:57;;;;;;;2.72;2.15;;;24.40;99.90;;;;;;5053831;28;20033;-79
2023/06/07 10:14:32;;;;;;;3.20;2.33;;;23.60;99.90;;;;;;5053127;28;20052;-74
2023/06/07 10:17:06;;;;;;;2.72;2.22;;;23.00;99.90;;;;;;5053338;28;20048;-76
2023/06/07 10:19:40;;;;;;;3.13;2.63;;;23.00;99.90;;;;;;5050512;28;20492;-83
2023/06/07 10:22:15;;;;;;;11.30;3.13;;;23.00;99.90;;;;;;5047653;28;20028;-82
2023/06/07 10:25:00;;;;;;;7.00;2.78;;;22.90;99.90;;;;;;5053475;28;20488;-80
2023/06/07 10:27:32;;;;;;;3.40;2.05;;;22.90;99.90;;;;;;5053677;28;20033;-82
2023/06/07 10:30:09;;;;;;;4.25;2.88;;;23.20;99.90;;;;;;5051830;28;20026;-82
2023/06/07 10:32:37;;;;;;;3.53;2.80;;;23.00;99.90;;;;;;5051756;28;20036;-81
2023/06/07 10:35:06;;;;;;;5.82;2.70;;;22.90;99.90;;;;;;5051951;28;20100;-79
2023/06/07 10:37:35;;;;;;;6.05;3.10;;;22.50;99.90;;;;;;5054085;28;20057;-79
2023/06/07 10:40:09;;;;;;;3.90;2.50;;;22.70;99.90;;;;;;5053006;28;20044;-81
2023/06/07 10:42:37;;;;;;;5.15;2.92;;;22.70;99.90;;;;;;5052298;28;20025;-83
2023/06/07 10:45:04;;;;;;;4.10;3.00;;;22.70;99.90;;;;;;5052302;28;20042;-81
2023/06/07 10:47:31;;;;;;;3.45;3.15;;;22.50;99.90;;;;;;5052443;28;20049;-80
2023/06/07 10:49:57;;;;;;;8.75;3.35;;;22.40;99.90;;;;;;5050378;28;20398;-81
2023/06/07 10:52:28;;;;;;;2.58;1.77;;;22.50;99.90;;;;;;5039421;28;20279;-81
2023/06/07 10:54:55;;;;;;;9.20;3.22;;;22.50;99.90;;;;;;5041164;28;20037;-79
2023/06/07 10:57:39;;;;;;;9.75;2.22;;;22.50;99.90;;;;;;5054818;28;20389;-82
2023/06/07 11:00:38;;;;;;;2.83;2.25;;;22.30;99.90;;;;;;5050095;28;20270;-75
2023/06/07 11:03:04;;;;;;;5.35;2.17;;;22.60;99.90;;;;;;5041131;28;20474;-81
2023/06/07 11:05:55;;;;;;;5.55;1.58;;;22.70;99.90;;;;;;5048483;28;20045;-84
2023/06/07 11:08:23;;;;;;;2.22;1.50;;;22.70;99.90;;;;;;5049884;28;20500;-81
2023/06/07 11:10:49;;;;;;;3.10;1.40;;;22.60;99.90;;;;;;5049105;28;20048;-80
2023/06/07 11:13:16;;;;;;;3.95;1.83;;;22.70;99.90;;;;;;5052578;28;20029;-79
2023/06/07 11:15:42;;;;;;;2.75;1.80;;;22.70;99.90;;;;;;5056524;28;20046;-79
2023/06/07 11:18:08;;;;;;;1.77;1.30;;;22.70;99.90;;;;;;5052990;28;20081;-79
2023/06/07 11:20:45;;;;;;;2.35;1.50;;;22.70;99.90;;;;;;5053126;28;20474;-77
2023/06/07 11:23:31;;;;;;;2.58;1.77;;;22.80;99.90;;;;;;5047348;28;20413;-83
2023/06/07 11:26:09;;;;;;;2.78;1.33;;;23.20;99.90;;;;;;5065063;28;20049;-79
2023/06/07 11:28:38;;;;;;;1.95;1.60;;;23.40;99.90;;;;;;5057181;28;20405;-78
2023/06/07 11:31:08;;;;;;;2.05;1.50;;;23.40;99.90;;;;;;5052096;28;20021;-78
2023/06/07 11:33:35;;;;;;;2.65;1.48;;;23.20;99.90;;;;;;5044035;28;20052;-79
2023/06/07 11:36:03;;;;;;;2.72;1.50;;;23.20;99.90;;;;;;5042465;28;20048;-78
2023/06/07 11:38:30;;;;;;;2.60;1.67;;;23.60;99.90;;;;;;5052674;28;20040;-81
2023/06/07 11:40:57;;;;;;;1.65;1.23;;;24.00;99.90;;;;;;5052438;28;20037;-81
2023/06/07 11:43:24;;;;;;;2.53;1.67;;;24.00;99.90;;;;;;5051721;28;20044;-80
2023/06/07 11:45:55;;;;;;;4.32;1.63;;;24.20;99.90;;;;;;5051712;28;20045;-79
2023/06/07 11:48:25;;;;;;;4.65;2.17;;;24.30;99.90;;;;;;5052866;28;20048;-80
2023/06/07 11:50:53;;;;;;;3.33;1.70;;;24.40;99.90;;;;;;5052131;28;20385;-80
2023/06/07 11:53:20;;;;;;;6.82;2.25;;;24.50;99.90;;;;;;5051555;28;20029;-80
2023/06/07 11:55:46;;;;;;;1.88;1.52;;;24.20;99.90;;;;;;5051897;28;20052;-82
2023/06/07 11:58:13;;;;;;;2.45;1.92;;;24.20;99.90;;;;;;5052668;28;20386;-80
2023/06/07 12:00:42;;;;;;;8.32;2.00;;;24.50;99.90;;;;;;5054451;28;20036;-78
2023/06/07 12:03:10;;;;;;;13.48;2.58;;;24.30;99.90;;;;;;5061209;28;20037;-82
2023/06/07 12:05:37;;;;;;;3.92;2.00;;;24.60;99.90;;;;;;5052729;28;20055;-81
2023/06/07 12:08:06;;;;;;;2.10;1.73;;;24.70;99.90;;;;;;5047119;28;20041;-83
2023/06/07 12:10:33;;;;;;;2.95;1.80;;;24.70;99.90;;;;;;5050170;28;20041;-81
2023/06/07 12:13:11;;;;;;;2.33;1.75;;;24.40;99.90;;;;;;5050004;28;20041;-80
2023/06/07 12:15:46;;;;;;;3.00;2.38;;;24.20;99.90;;;;;;5049511;28;20033;-80
2023/06/07 12:18:13;;;;;;;4.63;1.58;;;24.30;99.90;;;;;;5065369;28;20037;-80
2023/06/07 12:20:42;;;;;;;3.08;2.03;;;24.60;99.90;;;;;;5033000;28;20045;-85
2023/06/07 12:23:10;;;;;;;3.50;1.58;;;24.30;99.90;;;;;;5047982;28;20032;-85
2023/06/07 12:25:41;;;;;;;2.95;1.63;;;24.10;99.90;;;;;;5051488;28;20052;-81
2023/06/07 12:28:12;;;;;;;9.10;2.42;;;24.10;99.90;;;;;;5050270;28;20060;-80
2023/06/07 12:30:40;;;;;;;23.45;4.65;;;24.10;99.90;;;;;;5052201;28;20028;-81
2023/06/07 12:33:16;;;;;;;3.88;2.13;;;24.10;99.90;;;;;;5050403;28;20037;-78
2023/06/07 12:35:47;;;;;;;7.03;1.92;;;24.20;99.90;;;;;;5050160;28;20045;-76
2023/06/07 12:38:14;;;;;;;2.15;1.45;;;24.30;99.90;;;;;;5051521;28;20116;-78
2023/06/07 12:40:40;;;;;;;4.13;2.00;;;24.60;99.90;;;;;;5051603;28;20037;-78
2023/06/07 12:43:06;;;;;;;2.85;1.60;;;24.90;99.90;;;;;;5050032;28;20029;-79
2023/06/07 12:45:32;;;;;;;14.05;3.47;;;25.10;99.90;;;;;;5050710;28;20029;-78
2023/06/07 12:48:02;;;;;;;3.15;1.55;;;25.30;99.90;;;;;;5050257;28;20049;-79
2023/06/07 12:50:30;;;;;;;4.95;2.20;;;25.60;99.90;;;;;;5052464;28;20045;-79
2023/06/07 12:52:57;;;;;;;3.15;1.65;;;25.70;99.90;;;;;;5032531;28;20462;-79